createdAt,value
2018-12-08T00:01:49.388Z,45.22
2018-12-08T00:04:16.799Z,45.04
2018-12-08T00:06:44.186Z,45.20
2018-12-08T00:09:11.598Z,45.51
2018-12-08T00:11:38.994Z,45.74
2018-12-08T00:14:06.414Z,45.94
2018-12-08T00:16:33.802Z,45.23
2018-12-08T00:19:01.285Z,45.59
2018-12-08T00:21:28.746Z,45.69
2018-12-08T00:23:56.169Z,45.63
2018-12-08T00:26:23.594Z,45.81
2018-12-08T00:28:50.996Z,45.39
2018-12-08T00:31:24.085Z,45.87
2018-12-08T00:33:51.494Z,46.20
2018-12-08T00:36:18.956Z,45.38
2018-12-08T00:38:46.372Z,45.35
2018-12-08T00:41:13.828Z,46.02
2018-12-08T00:43:41.262Z,45.52
2018-12-08T00:46:08.759Z,45.75
2018-12-08T00:48:36.190Z,45.45
2018-12-08T00:51:03.615Z,45.69
2018-12-08T00:53:31.030Z,45.67
2018-12-08T00:55:58.479Z,45.74
2018-12-08T00:58:25.882Z,45.17
2018-12-08T01:00:53.278Z,45.64
2018-12-08T01:03:20.682Z,45.49
2018-12-08T01:05:48.174Z,45.22
2018-12-08T01:08:15.606Z,45.80
2018-12-08T01:10:43.002Z,45.37
2018-12-08T01:13:10.395Z,45.13
2018-12-08T01:15:37.786Z,45.04
2018-12-08T01:18:05.195Z,45.39
2018-12-08T01:20:32.606Z,45.36
2018-12-08T01:23:07.609Z,45.58
2018-12-08T01:25:35.014Z,45.47
2018-12-08T01:28:02.388Z,45.23
2018-12-08T01:30:29.796Z,45.24
2018-12-08T01:32:57.251Z,45.64
2018-12-08T01:35:24.672Z,45.10
2018-12-08T01:37:52.081Z,45.37
2018-12-08T01:40:19.472Z,45.62
2018-12-08T01:42:51.158Z,45.59
2018-12-08T01:45:18.537Z,45.15
2018-12-08T01:47:45.955Z,45.20
2018-12-08T01:50:13.341Z,45.23
2018-12-08T01:52:40.720Z,45.56
2018-12-08T01:55:08.132Z,44.99
2018-12-08T01:57:35.525Z,45.11
2018-12-08T02:00:02.977Z,45.45
2018-12-08T02:02:30.502Z,44.88
2018-12-08T02:04:57.905Z,45.02
2018-12-08T02:07:25.289Z,44.76
2018-12-08T02:09:52.694Z,45.02
2018-12-08T02:12:20.114Z,45.17
2018-12-08T02:14:47.506Z,45.55
2018-12-08T02:17:14.930Z,45.33
2018-12-08T02:19:42.338Z,45.13
2018-12-08T02:22:10.414Z,44.92
2018-12-08T02:24:37.942Z,45.01
2018-12-08T02:27:05.366Z,44.84
2018-12-08T02:29:32.746Z,45.07
2018-12-08T02:32:00.169Z,45.36
2018-12-08T02:34:27.552Z,45.48
2018-12-08T02:36:54.941Z,45.27
2018-12-08T02:39:22.377Z,45.40
2018-12-08T02:41:49.766Z,44.87
2018-12-08T02:44:17.416Z,44.95
2018-12-08T02:46:44.952Z,44.57
2018-12-08T02:49:12.350Z,44.67
2018-12-08T02:51:39.850Z,44.57
2018-12-08T02:54:07.242Z,44.77
2018-12-08T02:56:34.658Z,44.55
2018-12-08T02:59:02.055Z,44.87
2018-12-08T03:01:29.431Z,45.16
2018-12-08T03:03:56.836Z,44.70
2018-12-08T03:06:24.294Z,44.77
2018-12-08T03:08:51.704Z,44.87
2018-12-08T03:11:19.108Z,44.42
2018-12-08T03:13:46.554Z,44.95
2018-12-08T03:16:13.998Z,45.09
2018-12-08T03:18:41.501Z,44.96
2018-12-08T03:21:08.955Z,45.12
2018-12-08T03:23:36.357Z,44.86
2018-12-08T03:26:03.833Z,44.95
2018-12-08T03:28:31.234Z,45.15
2018-12-08T03:30:58.666Z,44.44
2018-12-08T03:33:26.075Z,45.08
2018-12-08T03:35:53.544Z,45.23
2018-12-08T03:38:20.951Z,44.95
2018-12-08T03:40:48.341Z,44.59
2018-12-08T03:43:15.762Z,44.77
2018-12-08T03:45:43.167Z,44.70
2018-12-08T03:48:10.558Z,44.47
2018-12-08T03:50:37.995Z,44.62
2018-12-08T03:53:05.394Z,44.27
2018-12-08T03:55:32.811Z,44.90
2018-12-08T03:58:00.206Z,44.76
2018-12-08T04:00:27.615Z,44.27
2018-12-08T04:02:55.006Z,44.02
2018-12-08T04:05:22.401Z,44.17
2018-12-08T04:07:49.779Z,44.64
2018-12-08T04:10:17.177Z,44.30
2018-12-08T04:12:44.606Z,44.34
2018-12-08T04:15:12.144Z,44.52
2018-12-08T04:17:39.712Z,43.99
2018-12-08T04:20:07.124Z,44.05
2018-12-08T04:22:34.629Z,44.24
2018-12-08T04:25:02.027Z,44.72
2018-12-08T04:27:31.837Z,44.24
2018-12-08T04:29:59.266Z,44.38
2018-12-08T04:32:26.671Z,44.73
2018-12-08T04:34:54.115Z,44.33
2018-12-08T04:37:21.510Z,44.12
2018-12-08T04:39:48.910Z,44.62
2018-12-08T04:42:16.287Z,44.86
2018-12-08T04:44:43.707Z,44.33
2018-12-08T04:47:11.097Z,44.74
2018-12-08T04:49:38.513Z,44.52
2018-12-08T04:52:05.911Z,44.40
2018-12-08T04:54:33.307Z,43.78
2018-12-08T04:57:00.689Z,43.96
2018-12-08T04:59:28.094Z,44.04
2018-12-08T05:01:55.493Z,43.64
2018-12-08T05:04:22.927Z,44.33
2018-12-08T05:06:50.341Z,43.76
2018-12-08T05:09:17.742Z,43.64
2018-12-08T05:11:45.204Z,43.54
2018-12-08T05:14:12.607Z,43.86
2018-12-08T05:16:39.986Z,43.60
2018-12-08T05:19:07.465Z,43.94
2018-12-08T05:21:34.949Z,43.97
2018-12-08T05:24:02.379Z,43.63
2018-12-08T05:26:29.775Z,44.30
2018-12-08T05:28:57.168Z,44.51
2018-12-08T05:31:24.579Z,44.32
2018-12-08T05:33:53.179Z,44.19
2018-12-08T05:36:20.578Z,44.43
2018-12-08T05:38:47.985Z,43.89
2018-12-08T05:41:15.429Z,44.56
2018-12-08T05:43:42.816Z,44.11
2018-12-08T05:46:10.246Z,44.82
2018-12-08T05:48:37.692Z,44.76
2018-12-08T05:51:05.067Z,44.53
2018-12-08T05:53:32.437Z,44.49
2018-12-08T05:55:59.830Z,44.52
2018-12-08T05:58:27.245Z,44.01
2018-12-08T06:00:54.703Z,43.86
2018-12-08T06:03:22.093Z,44.18
2018-12-08T06:05:49.486Z,43.72
2018-12-08T06:08:16.907Z,43.29
2018-12-08T06:10:44.294Z,43.98
2018-12-08T06:13:11.686Z,43.94
2018-12-08T06:15:39.118Z,43.78
2018-12-08T06:18:06.549Z,43.92
2018-12-08T06:20:34.034Z,43.16
2018-12-08T06:23:01.417Z,43.67
2018-12-08T06:25:29.979Z,43.77
2018-12-08T06:27:59.473Z,43.26
2018-12-08T06:30:26.938Z,44.07
2018-12-08T06:32:54.346Z,43.70
2018-12-08T06:35:21.726Z,44.02
2018-12-08T06:37:49.121Z,44.00
2018-12-08T06:40:16.517Z,43.83
2018-12-08T06:42:44.027Z,43.46
2018-12-08T06:45:11.419Z,43.51
2018-12-08T06:47:38.831Z,43.63
2018-12-08T06:50:07.611Z,43.48
2018-12-08T06:52:34.998Z,43.31
2018-12-08T06:55:02.397Z,43.59
2018-12-08T06:57:29.873Z,43.92
2018-12-08T06:59:57.351Z,43.56
2018-12-08T07:02:24.824Z,43.35
2018-12-08T07:04:52.253Z,43.60
2018-12-08T07:07:19.648Z,43.22
2018-12-08T07:09:47.273Z,43.36
2018-12-08T07:12:14.654Z,43.72
2018-12-08T07:14:42.047Z,43.61
2018-12-08T07:17:09.446Z,43.16
2018-12-08T07:19:36.893Z,43.49
2018-12-08T07:22:04.297Z,43.61
2018-12-08T07:24:31.689Z,43.94
2018-12-08T07:26:59.145Z,43.44
2018-12-08T07:29:26.540Z,44.10
2018-12-08T07:31:53.939Z,43.79
2018-12-08T07:34:21.334Z,44.02
2018-12-08T07:36:48.738Z,44.39
2018-12-08T07:39:16.142Z,43.89
2018-12-08T07:41:43.525Z,44.34
2018-12-08T07:44:10.957Z,44.57
2018-12-08T07:46:38.374Z,44.80
2018-12-08T07:49:05.863Z,44.69
2018-12-08T07:51:33.365Z,44.49
2018-12-08T07:54:00.853Z,44.86
2018-12-08T07:56:28.322Z,44.98
2018-12-08T07:58:55.717Z,44.82
2018-12-08T08:01:23.154Z,44.98
2018-12-08T08:03:50.557Z,44.83
2018-12-08T08:06:17.950Z,44.46
2018-12-08T08:08:45.335Z,44.85
2018-12-08T08:11:12.702Z,45.13
2018-12-08T08:13:40.125Z,45.09
2018-12-08T08:16:07.574Z,45.20
2018-12-08T08:18:34.992Z,44.75
2018-12-08T08:21:02.408Z,45.19
2018-12-08T08:23:29.810Z,44.92
2018-12-08T08:25:57.211Z,44.80
2018-12-08T08:28:24.657Z,44.79
2018-12-08T08:30:52.042Z,44.82
2018-12-08T08:33:19.434Z,45.20
2018-12-08T08:35:46.835Z,44.87
2018-12-08T08:38:14.241Z,44.74
2018-12-08T08:40:41.722Z,44.90
2018-12-08T08:43:09.110Z,44.92
2018-12-08T08:45:36.834Z,45.32
2018-12-08T08:48:04.378Z,45.24
2018-12-08T08:50:31.757Z,44.82
2018-12-08T08:53:01.123Z,45.46
2018-12-08T08:55:28.532Z,45.21
2018-12-08T08:57:55.914Z,44.92
2018-12-08T09:00:23.619Z,45.56
2018-12-08T09:02:51.077Z,45.05
2018-12-08T09:05:18.562Z,45.18
2018-12-08T09:07:45.949Z,45.39
2018-12-08T09:10:13.342Z,45.11
2018-12-08T09:12:40.733Z,45.42
2018-12-08T09:15:08.490Z,45.02
2018-12-08T09:17:35.938Z,45.39
2018-12-08T09:20:03.829Z,45.19
2018-12-08T09:22:31.228Z,45.37
2018-12-08T09:24:58.630Z,45.47
2018-12-08T09:27:26.116Z,45.09
2018-12-08T09:29:53.572Z,45.46
2018-12-08T09:32:21.018Z,45.26
2018-12-08T09:34:48.455Z,44.88
2018-12-08T09:37:15.861Z,44.86
2018-12-08T09:39:43.294Z,46.05
2018-12-08T09:42:10.685Z,46.44
2018-12-08T09:44:38.102Z,46.10
2018-12-08T09:47:05.586Z,46.03
2018-12-08T09:49:33.000Z,45.49
2018-12-08T09:52:00.570Z,44.36
2018-12-08T09:54:28.564Z,44.43
2018-12-08T09:59:40.089Z,43.67
2018-12-08T10:02:07.567Z,44.08
2018-12-08T10:04:34.986Z,44.55
2018-12-08T10:07:02.384Z,44.14
2018-12-08T10:09:29.810Z,44.07
2018-12-08T10:11:57.242Z,43.86
2018-12-08T10:14:25.042Z,44.11
2018-12-08T10:16:52.458Z,43.89
2018-12-08T10:19:19.910Z,43.97
2018-12-08T10:21:47.303Z,44.27
2018-12-08T10:24:14.699Z,44.36
2018-12-08T10:26:42.093Z,44.27
2018-12-08T10:29:09.478Z,44.37
2018-12-08T10:31:36.914Z,44.48
2018-12-08T10:34:04.282Z,43.91
2018-12-08T10:36:31.701Z,44.00
2018-12-08T10:38:59.094Z,44.31
2018-12-08T10:41:26.513Z,44.44
2018-12-08T10:43:54.065Z,44.36
2018-12-08T10:46:21.467Z,44.01
2018-12-08T10:48:48.902Z,44.68
2018-12-08T10:51:16.298Z,44.53
2018-12-08T10:53:43.698Z,44.66
2018-12-08T10:56:11.118Z,44.34
2018-12-08T10:58:38.522Z,44.29
2018-12-08T11:01:11.085Z,44.31
2018-12-08T11:03:47.318Z,44.69
2018-12-08T11:06:16.838Z,44.34
2018-12-08T11:08:44.369Z,44.28
2018-12-08T11:11:11.801Z,44.39
2018-12-08T11:13:39.209Z,44.48
2018-12-08T11:16:06.725Z,44.35
2018-12-08T11:18:34.169Z,44.37
2018-12-08T11:21:01.657Z,44.44
2018-12-08T11:23:29.067Z,44.80
2018-12-08T11:25:56.486Z,44.65
2018-12-08T11:28:23.899Z,44.67
2018-12-08T11:30:51.286Z,44.11
2018-12-08T11:33:18.733Z,44.65
2018-12-08T11:35:46.997Z,44.31
2018-12-08T11:38:14.435Z,44.51
2018-12-08T11:40:41.886Z,44.71
2018-12-08T11:43:09.466Z,44.33
2018-12-08T11:45:37.159Z,44.82
2018-12-08T11:48:04.673Z,44.39
2018-12-08T11:50:32.076Z,44.21
2018-12-08T11:52:59.526Z,44.40
2018-12-08T11:55:30.382Z,44.29
2018-12-08T11:57:56.491Z,43.87
2018-12-08T12:00:23.903Z,43.85
2018-12-08T12:02:51.291Z,44.11
2018-12-08T12:05:18.688Z,43.84
2018-12-08T12:07:46.176Z,43.92
2018-12-08T12:10:13.573Z,44.18
2018-12-08T12:12:41.029Z,43.87
2018-12-08T12:15:08.443Z,43.86
2018-12-08T12:17:35.912Z,44.51
2018-12-08T12:20:03.359Z,43.96
2018-12-08T12:22:30.891Z,44.45
2018-12-08T12:24:58.501Z,44.21
2018-12-08T12:27:25.902Z,44.42
2018-12-08T12:29:53.281Z,44.44
2018-12-08T12:32:20.697Z,44.04
2018-12-08T12:34:48.126Z,44.66
2018-12-08T12:37:15.525Z,44.58
2018-12-08T12:39:42.924Z,44.24
2018-12-08T12:42:10.321Z,44.19
2018-12-08T12:44:37.745Z,44.53
2018-12-08T12:47:05.194Z,44.20
2018-12-08T12:49:32.606Z,44.26
2018-12-08T12:52:00.125Z,44.11
2018-12-08T12:54:27.502Z,44.56
2018-12-08T12:56:54.893Z,44.76
2018-12-08T12:59:22.373Z,44.52
2018-12-08T13:01:49.763Z,44.75
2018-12-08T13:04:17.189Z,44.75
2018-12-08T13:06:45.645Z,44.84
2018-12-08T13:09:13.026Z,44.62
2018-12-08T13:11:41.434Z,44.72
2018-12-08T13:14:08.845Z,44.63
2018-12-08T13:16:36.244Z,44.47
2018-12-08T13:19:03.689Z,44.63
2018-12-08T13:21:31.077Z,44.93
2018-12-08T13:23:58.620Z,44.44
2018-12-08T13:26:26.009Z,44.32
2018-12-08T13:28:53.586Z,44.79
2018-12-08T13:31:20.983Z,44.08
2018-12-08T13:33:49.973Z,44.62
2018-12-08T13:36:17.409Z,44.45
2018-12-08T13:38:44.802Z,44.65
2018-12-08T13:41:12.254Z,44.50
2018-12-08T13:43:39.655Z,43.80
2018-12-08T13:46:07.261Z,44.46
2018-12-08T13:48:34.813Z,44.33
2018-12-08T13:51:02.344Z,44.49
2018-12-08T13:53:36.495Z,44.18
2018-12-08T13:55:59.247Z,44.51
2018-12-08T13:58:26.651Z,44.09
2018-12-08T14:00:54.070Z,44.54
2018-12-08T14:03:21.487Z,44.11
2018-12-08T14:05:48.875Z,44.20
2018-12-08T14:08:16.417Z,44.83
2018-12-08T14:10:43.833Z,44.54
2018-12-08T14:13:11.229Z,44.75
2018-12-08T14:15:38.625Z,44.67
2018-12-08T14:18:06.025Z,44.72
2018-12-08T14:20:34.486Z,44.79
2018-12-08T14:23:01.872Z,44.37
2018-12-08T14:25:29.286Z,44.34
2018-12-08T14:27:56.694Z,44.55
2018-12-08T14:30:24.081Z,44.39
2018-12-08T14:32:51.514Z,44.44
2018-12-08T14:35:18.906Z,44.51
2018-12-08T14:37:46.344Z,44.49
2018-12-08T14:40:13.812Z,44.93
2018-12-08T14:42:41.216Z,44.34
2018-12-08T14:45:09.613Z,44.56
2018-12-08T14:47:37.022Z,44.64
2018-12-08T14:50:04.737Z,44.57
2018-12-08T14:52:32.195Z,44.53
2018-12-08T14:54:59.598Z,44.04
2018-12-08T14:57:26.986Z,44.32
2018-12-08T14:59:54.390Z,44.23
2018-12-08T15:02:21.804Z,44.42
2018-12-08T15:04:49.245Z,44.11
2018-12-08T15:07:16.643Z,44.21
2018-12-08T15:09:44.066Z,44.56
2018-12-08T15:12:11.469Z,44.65
2018-12-08T15:14:38.899Z,44.54
2018-12-08T15:17:06.441Z,44.60
2018-12-08T15:19:33.840Z,44.54
2018-12-08T15:22:01.262Z,44.66
2018-12-08T15:24:28.734Z,44.52
2018-12-08T15:26:56.133Z,44.31
2018-12-08T15:29:23.550Z,44.59
2018-12-08T15:31:50.994Z,44.67
2018-12-08T15:34:18.428Z,44.10
2018-12-08T15:36:45.833Z,44.75
2018-12-08T15:39:13.250Z,44.27
2018-12-08T15:41:40.657Z,44.81
2018-12-08T15:44:08.067Z,44.35
2018-12-08T15:46:35.509Z,44.77
2018-12-08T15:49:02.989Z,44.90
2018-12-08T15:51:30.389Z,44.39
2018-12-08T15:53:59.287Z,44.67
2018-12-08T15:56:26.660Z,44.71
2018-12-08T15:58:54.064Z,44.98
2018-12-08T16:01:21.464Z,44.98
2018-12-08T16:03:48.897Z,44.91
2018-12-08T16:06:16.301Z,44.80
2018-12-08T16:08:43.698Z,44.68
2018-12-08T16:11:11.097Z,44.42
2018-12-08T16:13:38.533Z,44.74
2018-12-08T16:16:05.925Z,44.80
2018-12-08T16:18:33.349Z,44.31
2018-12-08T16:21:02.285Z,44.01
2018-12-08T16:23:29.677Z,44.15
2018-12-08T16:25:57.078Z,44.39
2018-12-08T16:28:24.477Z,43.87
2018-12-08T16:30:51.955Z,44.09
2018-12-08T16:33:19.390Z,44.32
2018-12-08T16:35:46.913Z,43.92
2018-12-08T16:38:14.346Z,44.39
2018-12-08T16:40:42.632Z,44.36
2018-12-08T16:43:10.170Z,44.41
2018-12-08T16:45:37.649Z,44.07
2018-12-08T16:48:05.038Z,44.59
2018-12-08T16:50:32.438Z,44.60
2018-12-08T16:52:59.817Z,44.51
2018-12-08T16:55:27.242Z,44.36
2018-12-08T16:57:54.662Z,44.29
2018-12-08T17:00:22.940Z,44.61
2018-12-08T17:02:50.340Z,44.30
2018-12-08T17:05:17.740Z,44.21
2018-12-08T17:07:45.137Z,44.43
2018-12-08T17:10:12.530Z,44.26
2018-12-08T17:12:39.939Z,44.83
2018-12-08T17:15:07.358Z,44.31
2018-12-08T17:17:34.764Z,44.63
2018-12-08T17:20:02.160Z,44.69
2018-12-08T17:22:29.595Z,44.47
2018-12-08T17:24:57.876Z,44.27
2018-12-08T17:27:25.346Z,44.26
2018-12-08T17:29:53.523Z,44.62
2018-12-08T17:32:20.958Z,44.76
2018-12-08T17:34:48.364Z,44.54
2018-12-08T17:37:16.544Z,44.24
2018-12-08T17:39:44.446Z,44.25
2018-12-08T17:42:11.881Z,44.28
2018-12-08T17:44:39.313Z,44.67
2018-12-08T17:47:07.263Z,44.75
2018-12-08T17:49:37.615Z,44.35
2018-12-08T17:52:05.931Z,45.02
2018-12-08T17:54:33.372Z,44.65
2018-12-08T17:57:00.955Z,44.70
2018-12-08T17:59:28.486Z,44.56
2018-12-08T18:01:56.228Z,45.20
2018-12-08T18:04:24.045Z,44.85
2018-12-08T18:06:51.798Z,45.06
2018-12-08T18:09:19.828Z,45.39
2018-12-08T18:11:47.980Z,45.10
2018-12-08T18:14:16.149Z,44.67
2018-12-08T18:16:44.627Z,45.43
2018-12-08T18:19:12.561Z,45.08
2018-12-08T18:21:40.541Z,45.22
2018-12-08T18:24:09.041Z,45.47
2018-12-08T18:26:39.770Z,45.29
2018-12-08T18:29:15.248Z,45.39
2018-12-08T18:31:43.281Z,44.95
2018-12-08T18:34:10.798Z,44.88
2018-12-08T18:36:39.803Z,44.90
2018-12-08T18:39:07.959Z,44.92
2018-12-08T18:41:35.588Z,45.18
2018-12-08T18:44:03.027Z,45.28
2018-12-08T18:46:31.138Z,44.83
2018-12-08T18:49:00.487Z,44.75
2018-12-08T18:51:28.663Z,44.69
2018-12-08T18:53:56.404Z,44.88
2018-12-08T18:56:23.900Z,45.20
2018-12-08T18:58:51.799Z,44.66
2018-12-08T19:01:19.352Z,44.65
2018-12-08T19:03:47.291Z,44.87
2018-12-08T19:06:15.747Z,44.59
2018-12-08T19:08:45.035Z,45.00
2018-12-08T19:11:12.498Z,44.87
2018-12-08T19:13:39.961Z,44.86
2018-12-08T19:16:07.383Z,44.88
2018-12-08T19:18:34.782Z,44.89
2018-12-08T19:21:02.191Z,44.80
2018-12-08T19:23:29.602Z,44.40
2018-12-08T19:25:57.006Z,44.09
2018-12-08T19:28:24.402Z,44.17
2018-12-08T19:30:51.914Z,44.07
2018-12-08T19:33:19.305Z,44.04
2018-12-08T19:35:46.741Z,44.27
2018-12-08T19:38:14.125Z,44.25
2018-12-08T19:40:41.583Z,44.41
2018-12-08T19:43:09.006Z,44.35
2018-12-08T19:45:36.425Z,44.72
2018-12-08T19:48:03.826Z,44.53
2018-12-08T19:50:31.238Z,44.51
2018-12-08T19:52:58.654Z,44.24
2018-12-08T19:55:26.071Z,44.68
2018-12-08T19:57:54.190Z,44.33
2018-12-08T20:00:22.668Z,44.52
2018-12-08T20:02:50.107Z,44.73
2018-12-08T20:05:17.514Z,44.43
2018-12-08T20:07:45.021Z,44.49
2018-12-08T20:10:12.437Z,44.50
2018-12-08T20:12:39.855Z,44.56
2018-12-08T20:15:08.962Z,44.49
2018-12-08T20:17:36.367Z,44.61
2018-12-08T20:20:03.862Z,45.03
2018-12-08T20:22:31.560Z,45.03
2018-12-08T20:24:59.071Z,44.95
2018-12-08T20:27:26.476Z,44.79
2018-12-08T20:29:53.903Z,44.63
2018-12-08T20:32:21.373Z,45.08
2018-12-08T20:34:48.766Z,45.18
2018-12-08T20:37:16.186Z,45.19
2018-12-08T20:39:43.592Z,45.03
2018-12-08T20:42:12.169Z,45.19
2018-12-08T20:44:39.630Z,44.92
2018-12-08T20:47:07.064Z,44.35
2018-12-08T20:49:34.461Z,44.29
2018-12-08T20:52:01.852Z,44.63
2018-12-08T20:54:29.254Z,44.35
2018-12-08T20:56:56.676Z,43.95
2018-12-08T20:59:24.066Z,43.96
2018-12-08T21:01:51.462Z,44.75
2018-12-08T21:04:18.932Z,44.10
2018-12-08T21:06:46.325Z,44.06
2018-12-08T21:09:13.719Z,44.71
2018-12-08T21:11:41.126Z,44.49
2018-12-08T21:14:08.534Z,44.20
2018-12-08T21:16:36.096Z,44.64
2018-12-08T21:19:03.659Z,44.71
2018-12-08T21:21:31.070Z,44.36
2018-12-08T21:23:58.656Z,44.47
2018-12-08T21:26:26.120Z,44.63
2018-12-08T21:28:53.529Z,44.41
2018-12-08T21:31:21.706Z,44.38
2018-12-08T21:33:49.161Z,44.21
2018-12-08T21:36:16.567Z,44.36
2018-12-08T21:38:43.998Z,44.69
2018-12-08T21:41:11.432Z,44.88
2018-12-08T21:43:38.846Z,44.88
2018-12-08T21:46:06.395Z,44.95
2018-12-08T21:48:33.833Z,44.60
2018-12-08T21:51:01.311Z,44.37
2018-12-08T21:53:28.726Z,44.62
2018-12-08T21:55:56.138Z,44.48
2018-12-08T21:58:23.685Z,44.86
2018-12-08T22:00:51.358Z,44.58
2018-12-08T22:03:18.812Z,43.76
2018-12-08T22:05:46.422Z,43.52
2018-12-08T22:08:13.924Z,43.78
2018-12-08T22:10:41.400Z,44.03
2018-12-08T22:13:08.819Z,44.13
2018-12-08T22:15:36.271Z,44.06
2018-12-08T22:18:03.663Z,44.43
2018-12-08T22:20:31.440Z,43.94
2018-12-08T22:22:59.513Z,43.72
2018-12-08T22:25:26.898Z,44.37
2018-12-08T22:27:54.293Z,44.63
2018-12-08T22:30:21.817Z,44.58
2018-12-08T22:32:49.214Z,44.63
2018-12-08T22:35:16.614Z,44.60
2018-12-08T22:37:44.006Z,44.77
2018-12-08T22:40:11.469Z,44.97
2018-12-08T22:42:38.925Z,44.55
2018-12-08T22:45:06.605Z,44.70
2018-12-08T22:47:34.007Z,44.53
2018-12-08T22:50:01.402Z,44.47
2018-12-08T22:52:28.859Z,44.18
2018-12-08T22:54:56.245Z,44.18
2018-12-08T22:57:23.673Z,44.44
2018-12-08T22:59:51.062Z,43.91
2018-12-08T23:02:18.460Z,44.24
2018-12-08T23:04:45.903Z,44.28
2018-12-08T23:07:13.497Z,44.35
2018-12-08T23:09:40.916Z,44.69
2018-12-08T23:12:08.358Z,44.54
2018-12-08T23:14:35.742Z,43.88
2018-12-08T23:17:03.149Z,44.07
2018-12-08T23:19:30.540Z,44.75
2018-12-08T23:21:57.942Z,44.18
2018-12-08T23:24:25.400Z,44.25
2018-12-08T23:26:52.825Z,44.52
2018-12-08T23:29:20.245Z,43.75
2018-12-08T23:31:47.648Z,44.16
2018-12-08T23:34:15.078Z,44.00
2018-12-08T23:36:42.508Z,43.95
2018-12-08T23:39:09.920Z,43.95
2018-12-08T23:41:37.325Z,43.51
2018-12-08T23:44:04.749Z,44.36
2018-12-08T23:46:32.270Z,44.29
2018-12-08T23:48:59.663Z,44.40
2018-12-08T23:51:27.066Z,44.95
2018-12-08T23:53:54.526Z,44.83
2018-12-08T23:56:21.922Z,44.79
2018-12-08T23:58:49.354Z,44.64
